Time;durP1;ratioP1;P1;durP2;ratioP2;P2;SDS_P1;SDS_P2;PMS_P1;PMS_P2;Temp;Humidity;BMP_temperature;BMP_pressure;BME280_temperature;BME280_humidity;BME280_pressure;Samples;Min_cycle;Max_cycle;Signal;HPM_P1;HPM_P2
2021/12/24 00:01:10;;;;;;;2.78;1.60;;;22.30;99.90;;;;;;5094845;28;20469;-70
2021/12/24 00:03:38;;;;;;;6.93;1.63;;;22.30;99.90;;;;;;5094813;28;20036;-71
2021/12/24 00:06:07;;;;;;;3.80;1.55;;;22.40;99.90;;;;;;5094792;28;20107;-72
2021/12/24 00:08:36;;;;;;;2.83;1.38;;;22.60;99.90;;;;;;5094789;28;20431;-69
2021/12/24 00:11:05;;;;;;;3.03;1.50;;;22.70;99.90;;;;;;5094548;28;20024;-69
2021/12/24 00:13:38;;;;;;;2.67;1.60;;;22.80;99.90;;;;;;5093910;28;20047;-72
2021/12/24 00:18:47;;;;;;;5.40;1.67;;;23.10;99.90;;;;;;5094500;28;20104;-70
2021/12/24 00:35:27;;;;;;;2.40;1.60;;;22.90;99.90;;;;;;5094300;28;20511;-73
2021/12/24 00:37:55;;;;;;;3.53;2.10;;;22.80;99.90;;;;;;5094112;28;20051;-73
2021/12/24 00:40:23;;;;;;;5.07;2.35;;;22.60;99.90;;;;;;5094047;28;20028;-72
2021/12/24 00:42:56;;;;;;;5.85;1.83;;;22.60;99.90;;;;;;5094061;28;20016;-70
2021/12/24 00:45:27;;;;;;;4.88;2.53;;;22.70;99.90;;;;;;5094130;28;20400;-72
2021/12/24 00:47:57;;;;;;;4.82;2.28;;;22.80;99.90;;;;;;5073716;28;20031;-69
2021/12/24 00:50:29;;;;;;;3.83;1.83;;;22.90;99.90;;;;;;5073558;28;20036;-72
2021/12/24 00:55:02;;;;;;;4.25;1.88;;;22.90;99.90;;;;;;5073670;28;20016;-69
2021/12/24 00:55:51;;;;;;;6.82;1.60;;;22.80;99.90;;;;;;5073522;28;20032;-72
2021/12/24 00:58:20;;;;;;;4.00;1.70;;;22.60;99.90;;;;;;5073521;28;20017;-72
2021/12/24 01:00:47;;;;;;;4.72;2.10;;;22.70;99.90;;;;;;5073289;28;20473;-72
2021/12/24 01:03:15;;;;;;;5.03;2.03;;;22.70;99.90;;;;;;5073642;28;20045;-72
2021/12/24 01:05:44;;;;;;;4.72;1.90;;;22.70;99.90;;;;;;5073196;28;20038;-70
2021/12/24 01:08:13;;;;;;;3.22;2.10;;;22.80;99.90;;;;;;5073071;28;20374;-73
2021/12/24 01:10:47;;;;;;;4.40;1.98;;;22.90;99.90;;;;;;5073115;28;20095;-72
2021/12/24 01:13:15;;;;;;;2.90;1.80;;;23.00;99.90;;;;;;5073356;28;20024;-70
2021/12/24 01:16:01;;;;;;;3.13;1.50;;;23.00;99.90;;;;;;5073429;28;20028;-73
2021/12/24 01:18:42;;;;;;;5.13;1.50;;;23.00;99.90;;;;;;5073304;28;20021;-72
2021/12/24 01:21:32;;;;;;;2.72;1.38;;;22.90;99.90;;;;;;5073179;28;20029;-67
2021/12/24 01:24:04;;;;;;;1.40;1.10;;;22.80;99.90;;;;;;5072985;28;20028;-72
2021/12/24 01:26:52;;;;;;;3.17;1.25;;;22.60;99.90;;;;;;5073385;28;20511;-72
2021/12/24 01:29:51;;;;;;;6.03;2.00;;;22.60;99.90;;;;;;5073218;28;20493;-71
2021/12/24 01:37:53;;;;;;;;;;;22.50;99.90;;;;;;5094023;28;20034;-68
2021/12/24 01:38:12;;;;;;;4.45;1.38;;;22.50;99.90;;;;;;5093186;28;19916;-72
2021/12/24 01:42:40;;;;;;;3.35;1.65;;;22.70;99.90;;;;;;5093392;28;20377;-69
2021/12/24 01:43:29;;;;;;;4.72;1.50;;;22.80;99.90;;;;;;5078944;28;20068;-69
2021/12/24 01:46:00;;;;;;;5.43;1.40;;;23.00;99.90;;;;;;5093652;28;20024;-72
2021/12/24 01:48:27;;;;;;;6.13;1.92;;;23.20;99.90;;;;;;5093411;28;20024;-72
2021/12/24 01:50:56;;;;;;;7.82;2.22;;;23.40;99.90;;;;;;5093287;28;20059;-73
2021/12/24 01:53:25;;;;;;;8.00;1.65;;;23.90;99.90;;;;;;5093153;28;20021;-72
2021/12/24 01:55:54;;;;;;;4.93;1.73;;;24.20;99.90;;;;;;5093346;28;20473;-72
2021/12/24 01:58:24;;;;;;;3.92;1.35;;;24.50;99.90;;;;;;5092577;28;20373;-71
2021/12/24 02:00:55;;;;;;;5.75;1.77;;;24.90;99.90;;;;;;5093251;28;20028;-72
2021/12/24 02:03:24;;;;;;;3.85;1.98;;;25.10;99.90;;;;;;5093205;28;20540;-72
2021/12/24 02:05:52;;;;;;;6.63;1.73;;;25.00;99.90;;;;;;5093680;28;20028;-70
2021/12/24 02:08:19;;;;;;;8.13;2.17;;;25.30;99.90;;;;;;5093179;28;20365;-71
2021/12/24 02:10:49;;;;;;;6.10;2.05;;;25.70;99.90;;;;;;5093136;28;20089;-72
2021/12/24 02:13:16;;;;;;;4.15;2.03;;;25.90;99.90;;;;;;5093064;28;20051;-72
2021/12/24 02:29:00;;;;;;;5.20;1.98;;;24.70;99.90;;;;;;5091037;28;20412;-72
2021/12/24 02:31:28;;;;;;;4.07;1.70;;;25.40;99.90;;;;;;5091575;28;20465;-72
2021/12/24 02:33:56;;;;;;;7.45;2.13;;;25.80;99.90;;;;;;5089556;28;20028;-72
2021/12/24 02:36:24;;;;;;;4.85;1.30;;;26.00;99.90;;;;;;5091298;28;20540;-72
2021/12/24 02:38:52;;;;;;;4.32;2.00;;;26.20;99.90;;;;;;5094016;28;20093;-72
2021/12/24 02:41:20;;;;;;;5.28;1.40;;;26.30;99.90;;;;;;5094180;28;20024;-72
2021/12/24 02:43:49;;;;;;;6.25;1.50;;;26.20;99.90;;;;;;5094689;28;20105;-72
2021/12/24 02:47:03;;;;;;;4.97;1.42;;;26.30;99.90;;;;;;5094624;28;20516;-72
2021/12/24 02:55:16;;;;;;;3.85;1.35;;;27.00;99.90;;;;;;5093177;28;20084;-74
2021/12/24 02:57:45;;;;;;;3.63;1.50;;;26.80;99.90;;;;;;5096157;28;20020;-73
2021/12/24 03:00:19;;;;;;;4.18;2.00;;;26.80;99.90;;;;;;5096207;28;20488;-73
2021/12/24 03:02:48;;;;;;;2.92;1.42;;;27.00;99.90;;;;;;5096128;28;20487;-73
2021/12/24 03:05:19;;;;;;;3.47;1.27;;;26.70;99.90;;;;;;5096013;28;20032;-73
2021/12/24 03:07:48;;;;;;;2.28;1.17;;;26.50;99.90;;;;;;5095592;28;20400;-73
2021/12/24 03:10:18;;;;;;;3.85;1.40;;;25.90;99.90;;;;;;5096049;28;20024;-73
2021/12/24 03:12:48;;;;;;;3.70;1.50;;;25.70;99.90;;;;;;5096078;28;20365;-73
2021/12/24 03:15:19;;;;;;;3.63;1.45;;;25.60;99.90;;;;;;5095357;28;20077;-73
2021/12/24 03:17:52;;;;;;;4.20;1.42;;;25.60;99.90;;;;;;5095402;28;20417;-73
2021/12/24 03:20:20;;;;;;;6.70;1.27;;;25.70;99.90;;;;;;5095945;28;20376;-73
2021/12/24 03:25:32;;;;;;;6.75;1.45;;;26.20;99.90;;;;;;5095688;28;20032;-73
2021/12/24 03:28:00;;;;;;;3.85;1.55;;;26.40;99.90;;;;;;5095114;28;20384;-73
2021/12/24 03:30:28;;;;;;;4.43;1.83;;;26.30;99.90;;;;;;5095597;28;20024;-73
2021/12/24 03:32:56;;;;;;;4.95;1.55;;;26.10;99.90;;;;;;5095613;28;20099;-73
2021/12/24 03:35:24;;;;;;;9.20;1.48;;;26.40;99.90;;;;;;5095524;28;20077;-73
2021/12/24 03:37:52;;;;;;;4.35;1.55;;;26.90;99.90;;;;;;5095200;28;20040;-73
2021/12/24 03:40:19;;;;;;;5.38;1.50;;;27.20;99.90;;;;;;5092606;28;20078;-73
2021/12/24 03:42:47;;;;;;;4.38;1.60;;;27.40;99.90;;;;;;5098179;28;20511;-73
2021/12/24 03:45:38;;;;;;;7.40;1.60;;;27.40;99.90;;;;;;5093714;28;20028;-73
2021/12/24 03:48:15;;;;;;;3.80;1.80;;;27.00;99.90;;;;;;5094268;28;20136;-73
2021/12/24 03:51:07;;;;;;;4.47;1.83;;;26.40;99.90;;;;;;5094282;28;20032;-73
2021/12/24 03:56:21;;;;;;;2.72;1.38;;;26.30;99.90;;;;;;5094543;28;20068;-74
2021/12/24 03:58:48;;;;;;;3.72;1.52;;;26.10;99.90;;;;;;5093238;28;20043;-73
2021/12/24 04:01:16;;;;;;;3.10;1.65;;;26.00;99.90;;;;;;5093915;28;20020;-73
2021/12/24 04:03:44;;;;;;;5.22;1.65;;;26.00;99.90;;;;;;5075161;28;20405;-73
2021/12/24 04:06:12;;;;;;;4.18;1.33;;;26.00;99.90;;;;;;5093149;28;20024;-73
2021/12/24 04:08:40;;;;;;;7.13;1.90;;;25.90;99.90;;;;;;5092928;28;20024;-73
2021/12/24 04:11:08;;;;;;;4.72;1.77;;;25.80;99.90;;;;;;5076625;28;20077;-73
2021/12/24 04:13:36;;;;;;;4.20;1.58;;;25.60;99.90;;;;;;5073504;28;20033;-73
2021/12/24 04:16:05;;;;;;;5.00;1.73;;;26.00;99.90;;;;;;5054365;28;20025;-72
2021/12/24 04:26:37;;;;;;;4.95;1.35;;;26.70;99.90;;;;;;5092967;28;20183;-72
2021/12/24 04:29:06;;;;;;;7.05;1.50;;;26.50;99.90;;;;;;5074436;28;20157;-71
2021/12/24 04:34:33;;;;;;;8.32;1.90;;;26.20;99.90;;;;;;5078553;28;20036;-71
2021/12/24 04:37:47;;;;;;;5.88;1.75;;;25.90;99.90;;;;;;5083514;28;20030;-73
2021/12/24 04:51:19;;;;;;;3.92;1.17;;;25.40;99.90;;;;;;5086157;28;20035;-73
2021/12/24 05:04:38;;;;;;;4.78;1.77;;;25.80;99.90;;;;;;5072543;28;20159;-72
2021/12/24 05:07:26;;;;;;;3.53;1.30;;;25.90;99.90;;;;;;5087105;28;20009;-71
2021/12/24 05:09:53;;;;;;;6.80;1.33;;;25.90;99.90;;;;;;5087194;28;20153;-72
2021/12/24 05:12:21;;;;;;;5.72;1.55;;;25.80;99.90;;;;;;5088115;28;20020;-73
2021/12/24 05:14:49;;;;;;;6.82;1.40;;;25.80;99.90;;;;;;5087427;28;20051;-72
2021/12/24 05:17:33;;;;;;;7.43;1.90;;;25.60;99.90;;;;;;5087906;28;20024;-72
2021/12/24 05:22:46;;;;;;;4.75;2.03;;;25.40;99.90;;;;;;5084666;28;20385;-72
2021/12/24 05:25:14;;;;;;;6.43;1.75;;;25.50;99.90;;;;;;5087962;28;20032;-72
2021/12/24 05:27:42;;;;;;;13.35;1.80;;;25.60;99.90;;;;;;5087051;28;20105;-74
2021/12/24 05:30:10;;;;;;;8.43;2.25;;;25.50;99.90;;;;;;5085717;28;20089;-72
2021/12/24 05:32:38;;;;;;;7.18;2.10;;;25.20;99.90;;;;;;5084594;28;20024;-72
2021/12/24 05:35:07;;;;;;;4.18;1.65;;;25.50;99.90;;;;;;5087329;28;20020;-72
2021/12/24 05:37:34;;;;;;;4.13;1.15;;;25.60;99.90;;;;;;5086039;28;20048;-72
2021/12/24 05:40:03;;;;;;;4.28;1.50;;;25.80;99.90;;;;;;5085212;28;20032;-72
2021/12/24 05:42:32;;;;;;;10.65;1.45;;;25.80;99.90;;;;;;5085850;28;20385;-72
2021/12/24 05:45:06;;;;;;;7.88;1.77;;;26.00;99.90;;;;;;5084570;28;20538;-72
2021/12/24 05:47:34;;;;;;;12.45;1.50;;;26.10;99.90;;;;;;5085004;28;20020;-73
2021/12/24 05:50:03;;;;;;;6.68;1.83;;;26.20;99.90;;;;;;5086750;28;20452;-73
2021/12/24 05:52:30;;;;;;;6.35;1.65;;;26.20;99.90;;;;;;5076938;28;20024;-72
2021/12/24 05:54:58;;;;;;;7.50;1.75;;;26.20;99.90;;;;;;5086517;28;20469;-72
2021/12/24 05:57:28;;;;;;;10.18;1.92;;;26.20;99.90;;;;;;5084698;28;20035;-72
2021/12/24 05:59:56;;;;;;;4.38;1.50;;;26.10;99.90;;;;;;5088295;28;20047;-72
2021/12/24 06:02:24;;;;;;;5.80;1.58;;;26.10;99.90;;;;;;5088303;28;20021;-72
2021/12/24 06:04:51;;;;;;;4.82;2.15;;;25.80;99.90;;;;;;5091039;28;20168;-72
2021/12/24 06:07:19;;;;;;;8.77;1.98;;;25.50;99.90;;;;;;5088949;28;20426;-72
2021/12/24 06:09:47;;;;;;;7.78;1.95;;;25.30;99.90;;;;;;5090856;28;20028;-72
2021/12/24 06:12:15;;;;;;;7.82;1.42;;;25.40;99.90;;;;;;5093291;28;20027;-72
2021/12/24 06:14:45;;;;;;;9.20;1.63;;;25.60;99.90;;;;;;5094285;28;20032;-73
2021/12/24 06:17:17;;;;;;;10.48;2.03;;;25.40;99.90;;;;;;5094865;28;20390;-72
2021/12/24 06:19:45;;;;;;;4.07;1.40;;;25.20;99.90;;;;;;5094664;28;20468;-72
2021/12/24 06:22:14;;;;;;;8.30;2.58;;;25.00;99.90;;;;;;5094409;28;20024;-72
2021/12/24 06:24:41;;;;;;;6.85;2.15;;;25.10;99.90;;;;;;5094617;28;20532;-72
2021/12/24 06:27:09;;;;;;;10.68;1.90;;;25.30;99.90;;;;;;5094575;28;20534;-72
2021/12/24 06:29:37;;;;;;;5.03;1.77;;;25.30;99.90;;;;;;5096117;28;20055;-72
2021/12/24 06:32:05;;;;;;;6.35;1.80;;;24.90;99.90;;;;;;5096476;28;20030;-73
2021/12/24 06:34:33;;;;;;;7.20;2.22;;;24.60;99.90;;;;;;5095548;28;20012;-72
2021/12/24 06:37:00;;;;;;;5.75;1.92;;;24.60;99.90;;;;;;5096261;28;20032;-72
2021/12/24 06:39:28;;;;;;;8.15;2.13;;;24.70;99.90;;;;;;5096155;28;20093;-72
2021/12/24 06:41:56;;;;;;;10.23;1.92;;;24.60;99.90;;;;;;5096111;28;20032;-71
2021/12/24 06:44:24;;;;;;;6.10;1.80;;;24.40;99.90;;;;;;5095924;28;20089;-72
2021/12/24 06:46:52;;;;;;;5.80;1.73;;;24.40;99.90;;;;;;5096242;28;20021;-73
2021/12/24 06:49:20;;;;;;;6.65;1.77;;;24.30;99.90;;;;;;5096368;28;20020;-71
2021/12/24 06:51:48;;;;;;;7.30;2.00;;;24.50;99.90;;;;;;5096159;28;20059;-72
2021/12/24 06:54:17;;;;;;;8.63;2.30;;;24.60;99.90;;;;;;5095986;28;20111;-71
2021/12/24 06:56:46;;;;;;;9.55;2.67;;;24.50;99.90;;;;;;5096148;28;20024;-71
2021/12/24 06:59:14;;;;;;;4.68;1.60;;;24.50;99.90;;;;;;5095934;28;20024;-71
2021/12/24 07:01:42;;;;;;;8.98;2.10;;;24.50;99.90;;;;;;5095386;28;20320;-73
2021/12/24 07:04:11;;;;;;;8.50;2.42;;;24.40;99.90;;;;;;5095485;28;20480;-72
2021/12/24 07:06:45;;;;;;;6.63;1.83;;;24.30;99.90;;;;;;5096136;28;20028;-71
2021/12/24 07:09:16;;;;;;;10.63;2.58;;;24.20;99.90;;;;;;5096025;28;20489;-71
2021/12/24 07:11:44;;;;;;;9.68;2.30;;;24.10;99.90;;;;;;5095890;28;20028;-71
2021/12/24 07:14:12;;;;;;;13.32;2.17;;;24.20;99.90;;;;;;5093992;28;20031;-73
2021/12/24 07:16:40;;;;;;;5.93;1.50;;;24.00;99.90;;;;;;5095469;28;20141;-74
2021/12/24 07:19:11;;;;;;;9.23;2.05;;;23.90;99.90;;;;;;5095296;28;20031;-74
2021/12/24 07:21:42;;;;;;;8.10;2.25;;;23.80;99.90;;;;;;5093927;28;20369;-73
2021/12/24 07:24:10;;;;;;;8.82;2.65;;;23.70;99.90;;;;;;5093623;28;20028;-73
2021/12/24 07:26:38;;;;;;;7.00;2.28;;;23.70;99.90;;;;;;5094557;28;20055;-72
2021/12/24 07:29:06;;;;;;;9.18;2.28;;;23.70;99.90;;;;;;5073719;28;20016;-72
2021/12/24 07:31:34;;;;;;;13.63;2.70;;;23.80;99.90;;;;;;5079035;28;20103;-73
2021/12/24 07:34:02;;;;;;;11.20;2.15;;;23.80;99.90;;;;;;5073967;28;20029;-72
2021/12/24 07:36:29;;;;;;;10.52;2.05;;;23.70;99.90;;;;;;5076750;28;20024;-72
2021/12/24 07:38:57;;;;;;;7.72;2.08;;;23.70;99.90;;;;;;5058664;28;20394;-71
2021/12/24 07:41:25;;;;;;;4.20;1.80;;;23.70;99.90;;;;;;5074884;28;20025;-73
2021/12/24 07:43:55;;;;;;;12.82;2.05;;;23.60;99.90;;;;;;5074811;28;20033;-74
2021/12/24 07:46:25;;;;;;;8.68;2.40;;;23.70;99.90;;;;;;5074368;28;20082;-73
2021/12/24 07:49:01;;;;;;;11.95;2.25;;;23.60;99.90;;;;;;5074355;28;20025;-73
2021/12/24 07:54:14;;;;;;;7.97;2.53;;;23.60;99.90;;;;;;5076096;28;20027;-73
2021/12/24 07:56:42;;;;;;;9.82;2.97;;;23.50;99.90;;;;;;5072732;28;20032;-72
2021/12/24 07:59:10;;;;;;;9.77;2.10;;;23.60;99.90;;;;;;5057326;28;20025;-72
2021/12/24 08:01:37;;;;;;;10.25;2.80;;;23.60;99.90;;;;;;5074735;28;20028;-72
2021/12/24 08:04:06;;;;;;;8.82;2.72;;;23.70;99.90;;;;;;5073421;28;20044;-70
2021/12/24 08:06:34;;;;;;;8.10;1.88;;;23.60;99.90;;;;;;5073070;28;20028;-72
2021/12/24 08:09:02;;;;;;;9.13;2.38;;;23.60;99.90;;;;;;5072646;28;20491;-72
2021/12/24 08:11:29;;;;;;;7.78;2.38;;;23.50;99.90;;;;;;5072997;28;20016;-72
2021/12/24 08:13:57;;;;;;;9.55;2.67;;;23.50;99.90;;;;;;5055861;28;20055;-72
2021/12/24 08:16:25;;;;;;;8.45;2.47;;;23.40;99.90;;;;;;5073663;28;20029;-73
2021/12/24 08:18:55;;;;;;;5.68;2.22;;;23.40;99.90;;;;;;5072360;28;20388;-73
2021/12/24 08:21:23;;;;;;;10.30;2.60;;;23.30;99.90;;;;;;5072965;28;20090;-73
2021/12/24 08:23:51;;;;;;;9.30;2.95;;;23.20;99.90;;;;;;5073249;28;20016;-73
2021/12/24 08:26:25;;;;;;;11.10;2.78;;;23.20;99.90;;;;;;5073369;28;20051;-72
2021/12/24 08:28:53;;;;;;;6.75;2.10;;;23.20;99.90;;;;;;5073271;28;20028;-72
2021/12/24 08:31:20;;;;;;;7.95;2.88;;;23.20;99.90;;;;;;5072788;28;20111;-72
2021/12/24 08:33:48;;;;;;;9.45;2.38;;;23.20;99.90;;;;;;5072502;28;20031;-72
2021/12/24 08:36:16;;;;;;;8.40;2.47;;;23.10;99.90;;;;;;5072963;28;20027;-72
2021/12/24 08:38:44;;;;;;;12.13;2.90;;;23.00;99.90;;;;;;5072617;28;20486;-72
2021/12/24 08:41:11;;;;;;;18.05;3.38;;;23.00;99.90;;;;;;5073053;28;20039;-72
2021/12/24 08:43:39;;;;;;;6.75;2.03;;;23.00;99.90;;;;;;5072874;28;20035;-72
2021/12/24 08:46:07;;;;;;;19.33;3.25;;;23.00;99.90;;;;;;5073002;28;20029;-72
2021/12/24 08:48:37;;;;;;;9.40;3.10;;;22.90;99.90;;;;;;5072469;28;20024;-73
2021/12/24 08:51:05;;;;;;;7.47;2.28;;;22.90;99.90;;;;;;5072755;28;20028;-73
2021/12/24 08:53:33;;;;;;;13.68;3.53;;;22.90;99.90;;;;;;5054689;28;20485;-73
2021/12/24 08:56:02;;;;;;;7.18;2.85;;;22.80;99.90;;;;;;5072647;28;20052;-73
2021/12/24 08:58:29;;;;;;;7.00;2.75;;;22.80;99.90;;;;;;5072343;28;20473;-74
2021/12/24 09:00:57;;;;;;;9.75;2.80;;;22.80;99.90;;;;;;5072746;28;20029;-73
2021/12/24 09:03:25;;;;;;;17.38;3.58;;;22.70;99.90;;;;;;5087546;28;20031;-72
2021/12/24 09:05:54;;;;;;;5.18;2.10;;;22.70;99.90;;;;;;5092447;28;20035;-73
2021/12/24 09:08:22;;;;;;;9.68;3.08;;;22.60;99.90;;;;;;5092746;28;20114;-73
2021/12/24 09:10:50;;;;;;;5.00;2.38;;;22.60;99.90;;;;;;5092797;28;20020;-73
2021/12/24 09:13:17;;;;;;;14.82;2.35;;;22.60;99.90;;;;;;5092609;28;20024;-73
2021/12/24 09:15:45;;;;;;;15.73;3.20;;;22.60;99.90;;;;;;5092109;28;20036;-73
2021/12/24 09:18:13;;;;;;;7.70;2.40;;;22.60;99.90;;;;;;5092520;28;20677;-73
2021/12/24 09:20:44;;;;;;;9.18;3.38;;;22.60;99.90;;;;;;5092819;28;20032;-72
2021/12/24 09:23:12;;;;;;;12.88;2.95;;;22.60;99.90;;;;;;5088658;28;20121;-73
2021/12/24 09:25:41;;;;;;;17.98;3.30;;;22.60;99.90;;;;;;5084505;28;20028;-74
2021/12/24 09:28:09;;;;;;;6.30;2.58;;;22.50;99.90;;;;;;5089366;28;20020;-73
2021/12/24 09:30:37;;;;;;;9.73;2.90;;;22.50;99.90;;;;;;5091038;28;20018;-74
2021/12/24 09:33:05;;;;;;;7.10;2.13;;;22.50;99.90;;;;;;5091536;28;20027;-73
2021/12/24 09:35:34;;;;;;;9.80;3.22;;;22.50;99.90;;;;;;5088632;28;20429;-72
2021/12/24 09:38:02;;;;;;;13.05;3.17;;;22.50;99.90;;;;;;5090485;28;20195;-71
2021/12/24 09:40:33;;;;;;;7.43;2.70;;;22.50;99.90;;;;;;5091699;28;20016;-73
2021/12/24 09:43:01;;;;;;;9.40;3.28;;;22.40;99.90;;;;;;5073465;28;20035;-73
2021/12/24 09:45:29;;;;;;;9.32;2.80;;;22.40;99.90;;;;;;5093339;28;20483;-72
2021/12/24 09:47:57;;;;;;;8.02;2.92;;;22.40;99.90;;;;;;5098459;28;20027;-74
2021/12/24 09:50:26;;;;;;;9.77;2.70;;;22.40;99.90;;;;;;5098352;28;20559;-71
2021/12/24 09:52:54;;;;;;;12.13;2.97;;;22.40;99.90;;;;;;5097820;28;20828;-71
2021/12/24 09:55:24;;;;;;;12.45;2.45;;;22.30;99.90;;;;;;5097952;28;20073;-71
2021/12/24 09:57:52;;;;;;;7.78;2.63;;;22.30;99.90;;;;;;5097520;28;20081;-71
2021/12/24 10:00:24;;;;;;;9.52;2.72;;;22.30;99.90;;;;;;5096946;28;20115;-72
2021/12/24 10:02:54;;;;;;;13.55;2.67;;;22.20;99.90;;;;;;5078880;28;20032;-71
2021/12/24 10:05:40;;;;;;;7.60;2.63;;;22.20;99.90;;;;;;5097274;28;20035;-74
2021/12/24 10:08:09;;;;;;;8.80;2.53;;;22.20;99.90;;;;;;5097112;28;20103;-72
2021/12/24 10:10:43;;;;;;;7.25;3.00;;;22.10;99.90;;;;;;5097280;28;20016;-72
2021/12/24 10:13:41;;;;;;;5.72;2.35;;;22.10;99.90;;;;;;5097431;28;20027;-72
2021/12/24 10:16:20;;;;;;;8.45;2.58;;;22.10;99.90;;;;;;5096428;28;20060;-72
2021/12/24 10:18:51;;;;;;;7.97;2.20;;;22.10;99.90;;;;;;5097159;28;20028;-72
2021/12/24 10:21:25;;;;;;;10.32;2.92;;;22.10;99.90;;;;;;5097108;28;20106;-73
2021/12/24 10:23:55;;;;;;;10.57;2.80;;;22.00;99.90;;;;;;5078448;28;20040;-72
2021/12/24 10:26:31;;;;;;;7.18;3.33;;;22.00;99.90;;;;;;5094723;28;20020;-73
2021/12/24 10:29:02;;;;;;;7.63;3.20;;;22.00;99.90;;;;;;5097122;28;20488;-72
2021/12/24 10:31:37;;;;;;;14.77;3.00;;;22.00;99.90;;;;;;5097055;28;20112;-73
2021/12/24 10:34:21;;;;;;;8.50;2.67;;;22.00;99.90;;;;;;5097255;28;20024;-72
2021/12/24 10:36:56;;;;;;;12.55;3.42;;;21.90;99.90;;;;;;5096987;28;20019;-72
2021/12/24 10:39:37;;;;;;;12.25;2.97;;;21.90;99.90;;;;;;5096565;28;20048;-72
2021/12/24 10:42:28;;;;;;;6.32;2.80;;;21.90;99.90;;;;;;5097139;28;20012;-72
2021/12/24 10:44:57;;;;;;;7.13;2.17;;;21.90;99.90;;;;;;5085269;28;20122;-71
2021/12/24 10:47:32;;;;;;;14.48;2.70;;;21.90;99.90;;;;;;5077346;28;20027;-72
2021/12/24 10:53:21;;;;;;;13.32;3.53;;;22.00;99.90;;;;;;5089404;28;20032;-73
2021/12/24 10:55:54;;;;;;;7.32;2.55;;;22.00;99.90;;;;;;5076917;28;20025;-72
2021/12/24 10:58:24;;;;;;;8.80;2.53;;;22.00;99.90;;;;;;5073147;28;20028;-72
2021/12/24 11:01:04;;;;;;;12.15;2.40;;;22.00;99.90;;;;;;5076898;28;20040;-72
2021/12/24 11:03:34;;;;;;;10.70;3.08;;;22.00;99.90;;;;;;5075372;28;20064;-72
2021/12/24 11:06:11;;;;;;;5.70;2.78;;;22.00;99.90;;;;;;5073688;28;20031;-72
2021/12/24 11:08:39;;;;;;;12.02;3.17;;;22.10;99.90;;;;;;5073845;28;20029;-72
2021/12/24 11:11:11;;;;;;;7.57;1.98;;;22.10;99.90;;;;;;5074102;28;20110;-72
2021/12/24 11:13:42;;;;;;;6.25;2.38;;;22.00;99.90;;;;;;5076958;28;20024;-72
2021/12/24 11:16:18;;;;;;;5.07;2.10;;;22.00;99.90;;;;;;5073929;28;20013;-72
2021/12/24 11:18:57;;;;;;;6.68;2.15;;;22.00;99.90;;;;;;5074055;28;20038;-73
2021/12/24 11:21:27;;;;;;;6.68;2.72;;;22.00;99.90;;;;;;5074008;28;20032;-72
2021/12/24 11:23:56;;;;;;;13.35;2.55;;;22.00;99.90;;;;;;5073664;28;20109;-72
2021/12/24 11:26:30;;;;;;;9.77;2.75;;;21.90;99.90;;;;;;5073718;28;20025;-73
2021/12/24 11:28:58;;;;;;;7.90;2.53;;;21.90;99.90;;;;;;5073855;28;20374;-72
2021/12/24 11:31:29;;;;;;;6.22;2.45;;;21.80;99.90;;;;;;5073715;28;20025;-72
2021/12/24 11:33:58;;;;;;;6.43;2.40;;;21.80;99.90;;;;;;5074038;28;20020;-72
2021/12/24 11:36:28;;;;;;;10.95;2.47;;;21.80;99.90;;;;;;5073499;28;20024;-72
2021/12/24 11:39:06;;;;;;;8.27;2.35;;;21.80;99.90;;;;;;5055257;28;20055;-72
2021/12/24 11:41:34;;;;;;;8.00;2.35;;;21.80;99.90;;;;;;5073557;28;20100;-72
2021/12/24 11:44:06;;;;;;;11.35;2.45;;;21.80;99.90;;;;;;5073212;28;20488;-72
2021/12/24 11:46:39;;;;;;;9.30;2.15;;;21.80;99.90;;;;;;5073777;28;20495;-72
2021/12/24 11:49:07;;;;;;;11.40;2.33;;;21.80;99.90;;;;;;5076145;28;20078;-72
2021/12/24 11:51:40;;;;;;;9.30;2.70;;;21.70;99.90;;;;;;5073358;28;20019;-72
2021/12/24 11:54:10;;;;;;;8.73;2.40;;;21.70;99.90;;;;;;5073227;28;20067;-72
2021/12/24 11:56:45;;;;;;;6.30;2.10;;;21.70;99.90;;;;;;5073228;28;20052;-72
2021/12/24 11:59:14;;;;;;;5.10;2.00;;;21.70;99.90;;;;;;5072793;28;20428;-72
2021/12/24 12:01:44;;;;;;;13.93;3.47;;;21.60;99.90;;;;;;5073182;28;20376;-72
2021/12/24 12:04:19;;;;;;;7.22;2.15;;;21.60;99.90;;;;;;5072764;28;20449;-72
2021/12/24 12:06:47;;;;;;;8.20;2.53;;;21.50;99.90;;;;;;5073234;28;20354;-73
2021/12/24 12:09:15;;;;;;;4.28;1.90;;;21.50;99.90;;;;;;5071804;28;20017;-72
2021/12/24 12:11:45;;;;;;;4.95;2.20;;;21.50;99.90;;;;;;5072858;28;20532;-72
2021/12/24 12:14:25;;;;;;;4.85;2.13;;;21.50;99.90;;;;;;5075594;28;20020;-72
2021/12/24 12:16:56;;;;;;;7.05;2.58;;;21.50;99.90;;;;;;5072858;28;20024;-72
2021/12/24 12:19:33;;;;;;;7.38;3.03;;;21.50;99.90;;;;;;5056351;28;20052;-73
2021/12/24 12:22:26;;;;;;;13.07;2.70;;;21.40;99.90;;;;;;5072907;28;20021;-72
2021/12/24 12:25:09;;;;;;;5.72;2.15;;;21.40;99.90;;;;;;5075480;28;20029;-72
2021/12/24 12:27:53;;;;;;;6.40;2.42;;;21.30;99.90;;;;;;5072732;28;20420;-72
2021/12/24 12:30:39;;;;;;;7.13;2.35;;;21.30;99.90;;;;;;5075496;28;20091;-72
2021/12/24 12:33:19;;;;;;;5.00;1.77;;;21.30;99.90;;;;;;5072057;28;20339;-72
2021/12/24 12:35:53;;;;;;;7.65;1.90;;;21.30;99.90;;;;;;5074619;28;20027;-73
2021/12/24 12:38:29;;;;;;;9.27;3.10;;;21.20;99.90;;;;;;5071703;28;20056;-73
2021/12/24 12:41:24;;;;;;;5.63;2.55;;;21.20;99.90;;;;;;5072438;28;20017;-73
2021/12/24 12:43:54;;;;;;;16.73;3.35;;;21.20;99.90;;;;;;5053233;28;20025;-73
2021/12/24 12:46:30;;;;;;;5.22;2.03;;;21.10;99.90;;;;;;5070642;28;20024;-72
2021/12/24 12:49:01;;;;;;;11.27;3.53;;;21.10;99.90;;;;;;5072258;28;20025;-72
2021/12/24 12:52:06;;;;;;;8.35;2.90;;;21.00;99.90;;;;;;5072291;28;20028;-72
2021/12/24 12:54:39;;;;;;;5.03;2.03;;;21.00;99.90;;;;;;5019685;28;20021;-72
2021/12/24 12:57:13;;;;;;;3.92;2.15;;;21.00;99.90;;;;;;5079197;28;20093;-73
2021/12/24 13:00:01;;;;;;;8.15;2.60;;;21.00;99.90;;;;;;5091464;28;20016;-71
2021/12/24 13:05:29;;;;;;;6.43;2.08;;;20.90;99.90;;;;;;5091781;28;20032;-72
2021/12/24 13:08:09;;;;;;;6.22;2.03;;;20.90;99.90;;;;;;5091213;28;20054;-72
2021/12/24 13:10:37;;;;;;;10.00;3.13;;;20.90;99.90;;;;;;5091460;28;20106;-72
2021/12/24 13:13:07;;;;;;;5.63;2.47;;;20.80;99.90;;;;;;5091898;28;20016;-72
2021/12/24 13:15:45;;;;;;;7.13;2.40;;;20.90;99.90;;;;;;5090515;28;20020;-72
2021/12/24 13:18:30;;;;;;;5.82;2.00;;;20.90;99.90;;;;;;5089875;28;20024;-72
2021/12/24 13:23:38;;;;;;;13.20;3.65;;;20.90;99.90;;;;;;5089849;28;20036;-73
2021/12/24 13:26:20;;;;;;;12.70;3.22;;;20.90;99.90;;;;;;5092684;28;20059;-73
2021/12/24 13:29:00;;;;;;;12.57;3.83;;;20.90;99.90;;;;;;5092506;28;20107;-73
2021/12/24 13:31:29;;;;;;;7.88;3.08;;;20.90;99.90;;;;;;5092849;28;20032;-74
2021/12/24 13:33:58;;;;;;;12.82;3.75;;;20.90;99.90;;;;;;5092937;28;20024;-71
2021/12/24 13:36:29;;;;;;;11.93;3.35;;;20.90;99.90;;;;;;5092955;28;20087;-72
2021/12/24 13:39:17;;;;;;;15.38;4.13;;;20.80;99.90;;;;;;5093163;28;20088;-72
2021/12/24 13:41:46;;;;;;;13.73;3.95;;;20.90;99.90;;;;;;5075543;28;20051;-72
2021/12/24 13:44:28;;;;;;;17.73;4.85;;;20.90;99.90;;;;;;5093507;28;20028;-72
2021/12/24 13:47:01;;;;;;;12.13;4.35;;;20.90;99.90;;;;;;5093537;28;20017;-72
2021/12/24 13:54:31;;;;;;;15.77;4.22;;;20.90;99.90;;;;;;5093298;28;20032;-72
2021/12/24 13:55:43;;;;;;;16.77;3.10;;;20.90;99.90;;;;;;5088262;28;20117;-72
2021/12/24 13:58:13;;;;;;;12.40;3.88;;;20.90;99.90;;;;;;5093292;28;20161;-71
2021/12/24 14:00:51;;;;;;;8.77;4.15;;;20.90;99.90;;;;;;5093403;28;20017;-72
2021/12/24 14:03:24;;;;;;;14.93;4.65;;;20.90;99.90;;;;;;5093354;28;20431;-72
2021/12/24 14:05:56;;;;;;;11.95;4.00;;;20.90;99.90;;;;;;5093264;28;20024;-72
2021/12/24 14:08:33;;;;;;;13.35;3.50;;;20.90;99.90;;;;;;5093284;28;20024;-72
2021/12/24 14:11:10;;;;;;;11.23;3.88;;;20.80;99.90;;;;;;5093229;28;20032;-72
2021/12/24 14:13:52;;;;;;;10.27;2.92;;;20.80;99.90;;;;;;5093159;28;20103;-72
2021/12/24 14:16:38;;;;;;;9.75;3.53;;;20.70;99.90;;;;;;5093273;28;20028;-72
2021/12/24 14:19:15;;;;;;;12.82;4.25;;;20.70;99.90;;;;;;5093163;28;20020;-72
2021/12/24 14:21:48;;;;;;;10.00;3.25;;;20.70;99.90;;;;;;5093039;28;20074;-72
2021/12/24 14:24:23;;;;;;;11.77;3.22;;;20.70;99.90;;;;;;5093034;28;20129;-73
2021/12/24 14:26:57;;;;;;;9.93;3.45;;;20.70;99.90;;;;;;5093168;28;20023;-72
2021/12/24 14:29:46;;;;;;;14.73;3.70;;;20.70;99.90;;;;;;5093001;28;20095;-72
2021/12/24 14:32:18;;;;;;;16.45;3.95;;;20.60;99.90;;;;;;5093544;28;20028;-73
2021/12/24 14:34:53;;;;;;;8.52;3.60;;;20.60;99.90;;;;;;5097647;28;20016;-73
2021/12/24 14:37:29;;;;;;;;;;;20.60;99.90;;;;;;5096870;28;20024;-73
2021/12/24 14:40:00;;;;;;;10.77;3.75;;;20.60;99.90;;;;;;5097116;28;19912;-72
2021/12/24 14:42:50;;;;;;;11.38;3.58;;;20.60;99.90;;;;;;5097101;28;20052;-72
2021/12/24 14:45:20;;;;;;;14.77;4.15;;;20.50;99.90;;;;;;5096729;28;20040;-73